Time;durP1;ratioP1;P1;durP2;ratioP2;P2;SDS_P1;SDS_P2;PMS_P1;PMS_P2;Temp;Humidity;BMP_temperature;BMP_pressure;BME280_temperature;BME280_humidity;BME280_pressure;Samples;Min_cycle;Max_cycle;Signal;HPM_P1;HPM_P2
2024/01/14 00:02:09;;;;;;;21.88;14.10;;;2.60;95.10;;;;;;5108213;28;20024;-58
2024/01/14 00:04:35;;;;;;;23.73;13.73;;;2.60;95.10;;;;;;5108067;28;20020;-58
2024/01/14 00:07:01;;;;;;;21.00;13.60;;;2.50;95.10;;;;;;5108323;28;20490;-58
2024/01/14 00:09:26;;;;;;;23.75;14.90;;;2.50;95.10;;;;;;5108154;28;20055;-59
2024/01/14 00:11:52;;;;;;;19.55;13.80;;;2.50;95.10;;;;;;5108278;28;20046;-58
2024/01/14 00:14:17;;;;;;;19.92;13.60;;;2.50;95.10;;;;;;5108023;28;20046;-58
2024/01/14 00:16:43;;;;;;;21.05;14.07;;;2.50;95.20;;;;;;5108021;28;20020;-58
2024/01/14 00:19:09;;;;;;;21.63;14.48;;;2.50;95.20;;;;;;5107814;28;20039;-58
2024/01/14 00:21:35;;;;;;;19.42;13.32;;;2.50;95.20;;;;;;5107908;28;20459;-58
2024/01/14 00:24:02;;;;;;;19.98;13.52;;;2.50;95.20;;;;;;5089782;28;20028;-58
2024/01/14 00:26:28;;;;;;;20.73;13.60;;;2.50;95.20;;;;;;5089653;28;20096;-58
2024/01/14 00:28:55;;;;;;;21.80;14.18;;;2.40;95.20;;;;;;5089423;28;20437;-58
2024/01/14 00:31:20;;;;;;;20.45;13.02;;;2.50;95.20;;;;;;5107770;28;20052;-58
2024/01/14 00:33:46;;;;;;;21.13;13.48;;;2.50;95.20;;;;;;5089238;28;20085;-58
2024/01/14 00:36:12;;;;;;;23.73;14.50;;;2.40;95.20;;;;;;5107521;28;20039;-58
2024/01/14 00:38:38;;;;;;;19.52;13.95;;;2.70;95.30;;;;;;5090236;28;20024;-59
2024/01/14 00:41:04;;;;;;;20.30;13.10;;;2.50;95.30;;;;;;5088784;28;20028;-58
2024/01/14 00:43:30;;;;;;;23.33;14.02;;;2.50;95.20;;;;;;5089217;28;20057;-58
2024/01/14 00:45:55;;;;;;;19.98;13.50;;;2.50;95.50;;;;;;5107309;28;20032;-58
2024/01/14 00:48:21;;;;;;;23.58;14.68;;;2.50;95.20;;;;;;5107427;28;20034;-58
2024/01/14 00:50:47;;;;;;;17.83;12.43;;;2.40;95.20;;;;;;5107455;28;20083;-58
2024/01/14 00:53:12;;;;;;;19.27;13.82;;;2.50;95.20;;;;;;5107297;28;20031;-58
2024/01/14 00:55:38;;;;;;;19.85;14.18;;;2.40;95.10;;;;;;5107004;28;20143;-58
2024/01/14 00:58:04;;;;;;;19.85;14.02;;;2.50;95.20;;;;;;5107212;28;20016;-58
2024/01/14 01:00:30;;;;;;;20.00;13.90;;;2.40;95.20;;;;;;5107129;28;20032;-58
2024/01/14 01:02:55;;;;;;;19.50;13.40;;;2.40;95.10;;;;;;5107223;28;20089;-58
2024/01/14 01:05:21;;;;;;;19.60;13.27;;;2.40;95.10;;;;;;5106991;28;20036;-58
2024/01/14 01:07:47;;;;;;;18.20;12.93;;;2.50;95.20;;;;;;5107089;28;20033;-51
2024/01/14 01:10:13;;;;;;;18.60;13.68;;;2.40;95.20;;;;;;5106954;28;20530;-51
2024/01/14 01:12:38;;;;;;;18.05;13.25;;;2.40;95.10;;;;;;5088900;28;20031;-50
2024/01/14 01:15:08;;;;;;;21.27;13.68;;;2.70;95.20;;;;;;5106840;28;20118;-50
2024/01/14 01:17:34;;;;;;;20.45;13.00;;;2.40;95.10;;;;;;5106937;28;20031;-50
2024/01/14 01:20:00;;;;;;;19.55;12.88;;;2.50;95.10;;;;;;5107076;28;20025;-50
2024/01/14 01:22:26;;;;;;;21.52;13.40;;;2.50;95.10;;;;;;5107527;28;20013;-50
2024/01/14 01:24:51;;;;;;;21.75;13.02;;;2.40;95.10;;;;;;5107126;28;20040;-50
2024/01/14 01:27:17;;;;;;;19.17;13.80;;;2.40;95.10;;;;;;5106996;28;20028;-50
2024/01/14 01:29:43;;;;;;;20.52;13.57;;;2.40;95.20;;;;;;5106342;28;20488;-51
2024/01/14 01:32:09;;;;;;;19.60;14.05;;;2.40;95.20;;;;;;5106929;28;20028;-50
2024/01/14 01:34:35;;;;;;;18.80;13.05;;;2.40;95.20;;;;;;5106826;28;20024;-50
2024/01/14 01:37:01;;;;;;;17.05;12.52;;;2.40;95.10;;;;;;5106703;28;20051;-50
2024/01/14 01:39:26;;;;;;;19.88;13.90;;;2.40;95.20;;;;;;5106844;28;20020;-50
2024/01/14 01:41:52;;;;;;;17.83;12.93;;;2.40;95.20;;;;;;5106793;28;20043;-50
2024/01/14 01:44:18;;;;;;;17.55;12.43;;;2.40;95.20;;;;;;5106519;28;20036;-50
2024/01/14 01:46:43;;;;;;;19.48;13.02;;;2.60;95.20;;;;;;5106722;28;20028;-50
2024/01/14 01:49:10;;;;;;;19.83;13.23;;;2.40;95.20;;;;;;5106601;28;20081;-50
2024/01/14 01:51:36;;;;;;;19.63;13.05;;;2.40;95.20;;;;;;5088678;28;20069;-50
2024/01/14 01:54:02;;;;;;;19.33;13.98;;;2.40;95.20;;;;;;5091348;28;20039;-50
2024/01/14 01:56:27;;;;;;;17.85;12.52;;;2.40;95.20;;;;;;5092455;28;20024;-50
2024/01/14 01:58:53;;;;;;;21.17;14.23;;;2.40;95.20;;;;;;5093225;28;20484;-50
2024/01/14 02:01:21;;;;;;;18.35;13.25;;;2.40;95.20;;;;;;5092584;28;20028;-50
2024/01/14 02:03:48;;;;;;;18.45;13.10;;;2.40;95.20;;;;;;5110752;28;20028;-50
2024/01/14 02:06:13;;;;;;;19.90;13.70;;;2.40;95.20;;;;;;5092292;28;20375;-50
2024/01/14 02:08:39;;;;;;;19.17;13.85;;;2.40;95.20;;;;;;5110482;28;20035;-50
2024/01/14 02:11:05;;;;;;;19.05;13.18;;;2.30;95.20;;;;;;5092253;28;20028;-50
2024/01/14 02:13:30;;;;;;;22.27;14.10;;;2.40;95.20;;;;;;5110320;28;20024;-50
2024/01/14 02:15:56;;;;;;;18.23;13.50;;;2.30;95.50;;;;;;5110385;28;20035;-50
2024/01/14 02:18:21;;;;;;;22.23;14.25;;;2.30;95.20;;;;;;5092111;28;20055;-50
2024/01/14 02:20:47;;;;;;;19.05;13.75;;;2.30;95.20;;;;;;5110335;28;20024;-50
2024/01/14 02:23:13;;;;;;;18.90;12.93;;;2.30;95.20;;;;;;5092196;28;20035;-50
2024/01/14 02:25:39;;;;;;;16.02;12.57;;;2.30;95.20;;;;;;5110214;28;20024;-50
2024/01/14 02:28:04;;;;;;;19.05;13.65;;;2.40;95.50;;;;;;5092006;28;20058;-50
2024/01/14 02:30:30;;;;;;;18.30;13.25;;;2.30;95.20;;;;;;5091972;28;20035;-50
2024/01/14 02:32:56;;;;;;;18.70;13.60;;;2.30;95.20;;;;;;5091820;28;20035;-50
2024/01/14 02:35:22;;;;;;;20.10;14.50;;;2.30;95.20;;;;;;5110034;28;20032;-50
2024/01/14 02:37:47;;;;;;;21.23;13.73;;;2.30;95.20;;;;;;5109878;28;20023;-50
2024/01/14 02:40:13;;;;;;;17.00;12.95;;;2.30;95.20;;;;;;5109836;28;20084;-50
2024/01/14 02:42:39;;;;;;;20.38;13.57;;;2.30;95.50;;;;;;5109740;28;20027;-50
2024/01/14 02:45:07;;;;;;;19.42;14.48;;;2.30;95.20;;;;;;5109574;28;20031;-50
2024/01/14 02:47:32;;;;;;;18.98;12.75;;;2.30;95.20;;;;;;5109635;28;20024;-50
2024/01/14 02:49:58;;;;;;;19.30;12.50;;;2.30;95.20;;;;;;5109435;28;20028;-50
2024/01/14 02:52:23;;;;;;;19.17;13.38;;;2.30;95.20;;;;;;5109500;28;20434;-50
2024/01/14 02:54:49;;;;;;;19.50;12.80;;;2.30;95.30;;;;;;5109306;28;20032;-50
2024/01/14 02:57:14;;;;;;;15.98;12.40;;;2.30;95.30;;;;;;5109667;28;20048;-50
2024/01/14 02:59:40;;;;;;;17.50;12.55;;;2.30;95.30;;;;;;5109409;28;20090;-50
2024/01/14 03:02:06;;;;;;;18.17;13.43;;;2.30;95.30;;;;;;5109461;28;20205;-50
2024/01/14 03:04:31;;;;;;;19.70;13.45;;;2.30;95.30;;;;;;5108286;28;20032;-50
2024/01/14 03:06:57;;;;;;;19.48;12.80;;;2.20;95.20;;;;;;5109494;28;20031;-50
2024/01/14 03:09:23;;;;;;;19.50;13.07;;;2.20;95.20;;;;;;5109405;28;20040;-50
2024/01/14 03:11:49;;;;;;;20.17;13.55;;;2.20;95.20;;;;;;5109372;28;20042;-50
2024/01/14 03:14:14;;;;;;;20.40;14.20;;;2.20;95.30;;;;;;5109153;28;20051;-50
2024/01/14 03:16:40;;;;;;;20.52;13.20;;;2.20;95.30;;;;;;5109243;28;20028;-50
2024/01/14 03:19:06;;;;;;;22.58;15.02;;;2.20;95.30;;;;;;5109263;28;20476;-50
2024/01/14 03:21:32;;;;;;;19.55;13.82;;;2.50;95.60;;;;;;5091241;28;20021;-50
2024/01/14 03:23:57;;;;;;;18.65;12.52;;;2.20;95.30;;;;;;5109101;28;20387;-50
2024/01/14 03:26:23;;;;;;;20.77;13.50;;;2.20;95.30;;;;;;5108826;28;20035;-50
2024/01/14 03:28:49;;;;;;;18.90;13.10;;;2.20;95.30;;;;;;5090999;28;20483;-50
2024/01/14 03:31:15;;;;;;;23.02;14.02;;;2.20;95.20;;;;;;5109015;28;20039;-50
2024/01/14 03:33:42;;;;;;;18.77;13.63;;;2.20;95.20;;;;;;5108863;28;20020;-50
2024/01/14 03:36:08;;;;;;;18.92;12.85;;;2.20;95.20;;;;;;5108751;28;20077;-50
2024/01/14 03:38:34;;;;;;;18.35;13.13;;;2.20;95.20;;;;;;5108692;28;20016;-50
2024/01/14 03:40:59;;;;;;;16.65;12.30;;;2.20;95.20;;;;;;5108813;28;20040;-50
2024/01/14 03:43:25;;;;;;;17.15;13.13;;;2.20;95.20;;;;;;5109063;28;20024;-50
2024/01/14 03:45:50;;;;;;;19.50;13.65;;;2.20;95.20;;;;;;5108792;28;20360;-50
2024/01/14 03:48:16;;;;;;;18.10;12.00;;;2.20;95.20;;;;;;5108637;28;20024;-50
2024/01/14 03:50:42;;;;;;;21.05;13.10;;;2.20;95.20;;;;;;5108606;28;20086;-50
2024/01/14 03:53:07;;;;;;;15.57;12.25;;;2.20;95.20;;;;;;5108364;28;20020;-50
2024/01/14 03:55:33;;;;;;;17.33;12.35;;;2.20;95.20;;;;;;5108401;28;20039;-50
2024/01/14 03:57:59;;;;;;;18.02;12.15;;;2.20;95.30;;;;;;5108288;28;20026;-50
2024/01/14 04:00:24;;;;;;;16.92;12.32;;;2.20;95.30;;;;;;5108413;28;20024;-50
2024/01/14 04:02:50;;;;;;;15.80;11.88;;;2.30;95.30;;;;;;5108328;28;20047;-50
2024/01/14 04:05:16;;;;;;;19.65;12.93;;;2.10;95.30;;;;;;5108197;28;20439;-50
2024/01/14 04:07:41;;;;;;;18.48;13.52;;;2.10;95.20;;;;;;5108224;28;20076;-50
2024/01/14 04:10:07;;;;;;;16.48;12.82;;;2.30;95.30;;;;;;5108170;28;20491;-50
2024/01/14 04:12:33;;;;;;;17.67;12.77;;;2.20;95.30;;;;;;5089763;28;20024;-50
2024/01/14 04:14:58;;;;;;;17.33;12.57;;;2.10;95.30;;;;;;5089717;28;20059;-50
2024/01/14 04:17:24;;;;;;;17.45;12.52;;;2.10;95.30;;;;;;5107572;28;20016;-50
2024/01/14 04:19:50;;;;;;;17.02;12.63;;;2.10;95.30;;;;;;5107984;28;20035;-50
2024/01/14 04:22:15;;;;;;;18.98;13.38;;;2.10;95.30;;;;;;5107885;28;20083;-50
2024/01/14 04:24:41;;;;;;;16.73;12.02;;;2.10;95.30;;;;;;5107825;28;20021;-50
2024/01/14 04:27:07;;;;;;;16.88;12.40;;;2.10;95.30;;;;;;5107873;28;20024;-50
2024/01/14 04:29:33;;;;;;;17.95;13.20;;;2.10;95.30;;;;;;5107693;28;20031;-50
2024/01/14 04:32:00;;;;;;;17.95;13.05;;;2.10;95.30;;;;;;5107803;28;20049;-50
2024/01/14 04:34:25;;;;;;;16.20;12.65;;;2.10;95.30;;;;;;5107672;28;20047;-50
2024/01/14 04:36:51;;;;;;;18.35;13.55;;;2.10;95.30;;;;;;5107659;28;20361;-50
2024/01/14 04:39:17;;;;;;;18.27;13.45;;;2.10;95.30;;;;;;5107886;28;20031;-50
2024/01/14 04:41:42;;;;;;;17.63;13.55;;;2.10;95.30;;;;;;5107393;28;20054;-50
2024/01/14 04:44:08;;;;;;;18.15;13.65;;;2.10;95.30;;;;;;5107272;28;20020;-50
2024/01/14 04:46:33;;;;;;;15.82;11.98;;;2.30;95.30;;;;;;5107545;28;20024;-50
2024/01/14 04:48:59;;;;;;;15.95;12.27;;;2.10;95.30;;;;;;5107506;28;20476;-50
2024/01/14 04:51:24;;;;;;;16.55;12.45;;;2.10;95.30;;;;;;5107478;28;20361;-50
2024/01/14 04:53:50;;;;;;;18.05;13.07;;;2.10;95.30;;;;;;5107257;28;20028;-50
2024/01/14 04:56:16;;;;;;;18.00;12.98;;;2.10;95.30;;;;;;5107257;28;20062;-50
2024/01/14 04:58:41;;;;;;;18.83;12.90;;;2.10;95.20;;;;;;5107216;28;20020;-50
2024/01/14 05:01:07;;;;;;;16.55;12.48;;;2.10;95.30;;;;;;5089160;28;20028;-50
2024/01/14 05:03:32;;;;;;;17.80;13.52;;;2.10;95.30;;;;;;5107194;28;20024;-50
2024/01/14 05:05:58;;;;;;;16.67;12.85;;;2.10;95.20;;;;;;5089056;28;20032;-50
2024/01/14 05:08:24;;;;;;;19.50;12.98;;;2.10;95.20;;;;;;5107035;28;20088;-50
2024/01/14 05:10:49;;;;;;;17.35;12.82;;;2.10;95.30;;;;;;5106974;28;20064;-50
2024/01/14 05:13:15;;;;;;;14.65;11.43;;;2.00;95.30;;;;;;5106838;28;20031;-50
2024/01/14 05:15:40;;;;;;;17.15;12.80;;;2.10;95.30;;;;;;5106933;28;20052;-50
2024/01/14 05:18:06;;;;;;;18.35;12.73;;;2.10;95.30;;;;;;5107068;28;20020;-50
2024/01/14 05:20:31;;;;;;;16.77;12.63;;;2.10;95.30;;;;;;5106949;28;20433;-50
2024/01/14 05:22:57;;;;;;;16.15;11.73;;;2.10;95.30;;;;;;5106953;28;20066;-50
2024/01/14 05:25:23;;;;;;;18.77;12.68;;;2.10;95.30;;;;;;5088599;28;20309;-50
2024/01/14 05:27:48;;;;;;;16.65;12.10;;;2.10;95.20;;;;;;5088195;28;20032;-50
2024/01/14 05:30:14;;;;;;;17.33;12.38;;;2.10;95.20;;;;;;5106673;28;20028;-50
2024/01/14 05:32:40;;;;;;;17.30;12.32;;;2.10;95.20;;;;;;5106757;28;20103;-50
2024/01/14 05:35:05;;;;;;;15.70;11.68;;;2.00;95.20;;;;;;5106250;28;20459;-50
2024/01/14 05:37:34;;;;;;;16.67;12.02;;;2.10;95.30;;;;;;5089149;28;20027;-50
2024/01/14 05:39:59;;;;;;;17.15;12.35;;;2.00;95.20;;;;;;5106884;28;20036;-50
2024/01/14 05:42:25;;;;;;;16.98;12.05;;;2.00;95.20;;;;;;5088743;28;20519;-50
2024/01/14 05:44:51;;;;;;;15.90;12.77;;;2.00;95.30;;;;;;5106502;28;20040;-50
2024/01/14 05:47:16;;;;;;;17.67;12.18;;;2.00;95.20;;;;;;5106551;28;20032;-50
2024/01/14 05:49:42;;;;;;;16.38;11.65;;;2.00;95.20;;;;;;5088363;28;20028;-50
2024/01/14 05:52:07;;;;;;;17.55;12.77;;;2.00;95.20;;;;;;5106661;28;20058;-50
2024/01/14 05:54:33;;;;;;;16.05;12.43;;;2.00;95.20;;;;;;5106415;28;20061;-50
2024/01/14 05:56:59;;;;;;;17.13;11.25;;;2.00;95.20;;;;;;5106559;28;20503;-50
2024/01/14 05:59:24;;;;;;;18.15;12.38;;;2.00;95.20;;;;;;5088608;28;20020;-50
2024/01/14 06:01:50;;;;;;;17.73;11.98;;;2.00;95.30;;;;;;5106393;28;20349;-50
2024/01/14 06:04:15;;;;;;;16.90;11.80;;;2.00;95.30;;;;;;5106428;28;20024;-50
2024/01/14 06:06:41;;;;;;;19.27;12.55;;;1.90;95.30;;;;;;5106197;28;20412;-50
2024/01/14 06:09:07;;;;;;;15.82;11.63;;;1.90;95.30;;;;;;5106139;28;20039;-50
2024/01/14 06:11:32;;;;;;;17.80;12.25;;;2.00;95.30;;;;;;5070788;28;20062;-50
2024/01/14 06:13:58;;;;;;;15.75;12.05;;;1.90;95.20;;;;;;5087744;28;20488;-50
2024/01/14 06:16:25;;;;;;;18.75;13.02;;;2.00;95.30;;;;;;5106177;28;20077;-50
2024/01/14 06:18:50;;;;;;;16.55;12.25;;;1.90;95.30;;;;;;5088168;28;20024;-50
2024/01/14 06:21:16;;;;;;;17.48;11.93;;;1.90;95.30;;;;;;5106326;28;20047;-50
2024/01/14 06:23:41;;;;;;;16.13;11.55;;;2.00;95.30;;;;;;5106009;28;20028;-50
2024/01/14 06:26:07;;;;;;;22.92;11.52;;;1.90;95.30;;;;;;5106201;28;20024;-50
2024/01/14 06:28:33;;;;;;;20.65;12.55;;;1.90;95.30;;;;;;5106139;28;20074;-50
2024/01/14 06:30:58;;;;;;;23.92;12.10;;;1.90;95.30;;;;;;5088062;28;20035;-50
2024/01/14 06:33:24;;;;;;;29.25;11.90;;;1.90;95.30;;;;;;5106073;28;20065;-50
2024/01/14 06:35:50;;;;;;;18.27;12.30;;;1.90;95.30;;;;;;5105920;28;20059;-50
2024/01/14 06:38:15;;;;;;;21.77;12.05;;;1.90;95.30;;;;;;5105994;28;20024;-50
2024/01/14 06:40:41;;;;;;;26.15;13.32;;;1.90;95.40;;;;;;5109619;28;20037;-50
2024/01/14 06:43:08;;;;;;;28.23;13.15;;;1.90;95.40;;;;;;5091779;28;20028;-50
2024/01/14 06:45:33;;;;;;;26.65;13.10;;;1.90;95.30;;;;;;5109928;28;20050;-50
2024/01/14 06:47:59;;;;;;;28.42;14.73;;;2.20;95.40;;;;;;5109616;28;20024;-50
2024/01/14 06:50:25;;;;;;;25.70;13.05;;;1.90;95.30;;;;;;5109792;28;20043;-50
2024/01/14 06:52:50;;;;;;;26.75;11.98;;;1.90;95.30;;;;;;5109487;28;20028;-50
2024/01/14 06:55:16;;;;;;;28.80;13.40;;;2.00;95.30;;;;;;5109580;28;20039;-50
2024/01/14 06:57:41;;;;;;;31.27;13.68;;;1.90;95.30;;;;;;5109517;28;20046;-50
2024/01/14 07:00:08;;;;;;;23.60;13.50;;;1.90;95.40;;;;;;5109321;28;20027;-50
2024/01/14 07:02:34;;;;;;;20.95;13.23;;;1.90;95.40;;;;;;5109274;28;20016;-50
2024/01/14 07:05:00;;;;;;;35.38;13.73;;;1.80;95.40;;;;;;5109406;28;20032;-50
2024/01/14 07:07:26;;;;;;;49.78;15.50;;;1.90;95.40;;;;;;5109503;28;20119;-50
2024/01/14 07:09:51;;;;;;;32.38;15.52;;;1.90;95.50;;;;;;5109428;28;20043;-50
2024/01/14 07:12:17;;;;;;;39.67;15.35;;;1.90;95.50;;;;;;5109221;28;20030;-49
2024/01/14 07:14:42;;;;;;;33.45;15.07;;;2.10;95.60;;;;;;5108943;28;20032;-50
2024/01/14 07:17:08;;;;;;;44.83;17.52;;;1.80;95.60;;;;;;5108833;28;20016;-50
2024/01/14 07:19:35;;;;;;;45.33;16.13;;;1.80;95.60;;;;;;5090686;28;20024;-50
2024/01/14 07:22:02;;;;;;;43.10;16.30;;;1.80;95.50;;;;;;5092000;28;20025;-50
2024/01/14 07:24:27;;;;;;;40.33;16.05;;;1.90;95.50;;;;;;5108961;28;20028;-50
2024/01/14 07:26:53;;;;;;;46.80;17.48;;;1.80;95.50;;;;;;5109001;28;20035;-50
2024/01/14 07:29:18;;;;;;;59.03;17.80;;;1.80;95.50;;;;;;5108762;28;20101;-50
2024/01/14 07:31:44;;;;;;;51.05;17.20;;;1.90;95.50;;;;;;5108675;28;20036;-51
2024/01/14 07:34:10;;;;;;;44.40;17.30;;;1.80;95.50;;;;;;5108273;28;20053;-50
2024/01/14 07:36:36;;;;;;;42.55;18.10;;;1.80;95.50;;;;;;5110067;28;20060;-50
2024/01/14 07:39:03;;;;;;;41.13;17.27;;;1.90;95.60;;;;;;5092841;28;20020;-50
2024/01/14 07:41:28;;;;;;;38.92;18.35;;;1.80;95.60;;;;;;5108882;28;20038;-50
2024/01/14 07:43:54;;;;;;;43.88;18.33;;;1.80;95.70;;;;;;5108568;28;20111;-50
2024/01/14 07:46:20;;;;;;;40.92;17.75;;;1.80;95.80;;;;;;5108783;28;20069;-51
2024/01/14 07:48:46;;;;;;;40.00;17.40;;;1.90;95.80;;;;;;5108525;28;20031;-50
2024/01/14 07:51:11;;;;;;;47.65;18.08;;;1.80;95.70;;;;;;5108008;28;20035;-50
2024/01/14 07:53:37;;;;;;;40.13;17.23;;;1.80;95.70;;;;;;5090283;28;20024;-58
2024/01/14 07:56:03;;;;;;;40.20;18.00;;;1.90;95.80;;;;;;5108345;28;20032;-58
2024/01/14 07:58:28;;;;;;;60.45;18.73;;;1.80;95.70;;;;;;5108194;28;20055;-58
2024/01/14 08:00:54;;;;;;;44.00;18.77;;;1.90;95.80;;;;;;5108393;28;20037;-59
2024/01/14 08:03:19;;;;;;;47.63;18.08;;;1.90;95.80;;;;;;5089905;28;20067;-58
2024/01/14 08:05:46;;;;;;;37.75;18.42;;;1.90;95.70;;;;;;5089990;28;20123;-58
2024/01/14 08:08:12;;;;;;;48.58;18.30;;;1.90;95.70;;;;;;5090042;28;20074;-58
2024/01/14 08:10:38;;;;;;;34.63;16.50;;;1.90;95.70;;;;;;5108031;28;20036;-58
2024/01/14 08:13:04;;;;;;;41.40;17.73;;;1.90;95.70;;;;;;5107863;28;20027;-58
2024/01/14 08:15:29;;;;;;;36.85;17.60;;;1.90;95.70;;;;;;5089885;28;20032;-58
2024/01/14 08:17:55;;;;;;;39.03;17.23;;;1.90;95.60;;;;;;5107816;28;20468;-58
2024/01/14 08:20:21;;;;;;;42.67;16.92;;;1.90;95.60;;;;;;5107740;28;20044;-58
2024/01/14 08:22:46;;;;;;;37.67;16.85;;;1.90;95.60;;;;;;5107783;28;20100;-58
2024/01/14 08:25:12;;;;;;;43.70;18.00;;;1.90;95.60;;;;;;5107472;28;20040;-58
2024/01/14 08:27:40;;;;;;;45.58;19.15;;;1.90;95.70;;;;;;5107590;28;20174;-58
2024/01/14 08:30:06;;;;;;;53.45;19.75;;;1.90;95.80;;;;;;5107503;28;20042;-58
2024/01/14 08:32:32;;;;;;;52.35;18.88;;;1.90;96.10;;;;;;5107755;28;20062;-58
2024/01/14 08:34:58;;;;;;;53.90;19.55;;;1.90;96.10;;;;;;5089110;28;20088;-58
2024/01/14 08:37:24;;;;;;;51.20;19.90;;;1.90;96.00;;;;;;5089533;28;20030;-58
2024/01/14 08:39:50;;;;;;;54.15;19.83;;;1.90;96.00;;;;;;5107287;28;20384;-58
2024/01/14 08:42:16;;;;;;;56.90;19.42;;;1.90;96.00;;;;;;5107413;28;20491;-58
2024/01/14 08:44:42;;;;;;;55.40;18.33;;;1.90;96.00;;;;;;5107021;28;20028;-58
2024/01/14 08:47:08;;;;;;;56.78;17.52;;;1.90;96.00;;;;;;5107553;28;20046;-58
2024/01/14 08:49:34;;;;;;;38.17;17.70;;;1.90;96.10;;;;;;5107371;28;20016;-58
2024/01/14 08:52:01;;;;;;;53.80;18.63;;;1.90;96.00;;;;;;5089199;28;20087;-58
2024/01/14 08:54:32;;;;;;;56.28;18.48;;;1.90;96.00;;;;;;5090155;28;20031;-59
2024/01/14 08:56:58;;;;;;;44.22;18.38;;;1.90;96.20;;;;;;5090535;28;20020;-58
2024/01/14 08:59:24;;;;;;;40.92;17.23;;;1.90;96.00;;;;;;5107353;28;20077;-58
2024/01/14 09:01:49;;;;;;;41.08;17.85;;;1.90;95.90;;;;;;5106993;28;20476;-58
2024/01/14 09:04:15;;;;;;;34.97;15.93;;;1.90;95.90;;;;;;5106429;28;20028;-57
2024/01/14 09:06:40;;;;;;;41.63;17.20;;;1.90;95.90;;;;;;5101059;28;20385;-58
2024/01/14 09:09:09;;;;;;;44.10;17.27;;;1.90;95.90;;;;;;5086741;28;20044;-58
2024/01/14 09:11:34;;;;;;;48.58;17.52;;;1.90;95.80;;;;;;5103797;28;20039;-58
2024/01/14 09:14:00;;;;;;;36.42;15.95;;;1.90;95.80;;;;;;5085740;28;20025;-58
2024/01/14 09:16:25;;;;;;;41.05;15.70;;;1.90;95.80;;;;;;5084566;28;20507;-58
2024/01/14 09:18:51;;;;;;;34.97;15.60;;;1.90;95.80;;;;;;5084481;28;20024;-59
2024/01/14 09:21:17;;;;;;;50.83;17.00;;;2.00;95.70;;;;;;5087081;28;20040;-58
2024/01/14 09:23:42;;;;;;;35.00;16.25;;;1.90;95.90;;;;;;5086468;28;20059;-58
2024/01/14 09:26:08;;;;;;;47.35;17.13;;;1.90;95.60;;;;;;5086698;28;20040;-58
2024/01/14 09:28:34;;;;;;;59.03;16.90;;;1.90;95.60;;;;;;5104767;28;20052;-58
2024/01/14 09:31:00;;;;;;;46.83;16.23;;;1.90;95.90;;;;;;5102260;28;20034;-58
2024/01/14 09:33:26;;;;;;;32.80;15.75;;;2.00;96.20;;;;;;5091910;28;20084;-58
2024/01/14 09:35:51;;;;;;;29.20;15.20;;;2.00;96.10;;;;;;5090793;28;20037;-58
2024/01/14 09:38:17;;;;;;;35.53;15.35;;;2.00;96.00;;;;;;5086509;28;20063;-58
2024/01/14 09:40:46;;;;;;;37.28;15.38;;;2.00;95.90;;;;;;5086172;28;20135;-57
2024/01/14 09:43:12;;;;;;;36.13;15.93;;;2.00;95.80;;;;;;5100041;28;20031;-58
2024/01/14 09:45:40;;;;;;;41.97;15.20;;;2.00;95.70;;;;;;5121845;28;20040;-58
2024/01/14 09:48:06;;;;;;;49.70;16.75;;;2.00;95.70;;;;;;5096879;28;20028;-59
2024/01/14 09:50:32;;;;;;;36.33;14.68;;;1.90;95.80;;;;;;5101438;28;20052;-58
2024/01/14 09:53:00;;;;;;;49.28;17.70;;;2.00;95.80;;;;;;5101484;28;20020;-58
2024/01/14 09:55:25;;;;;;;44.78;16.80;;;2.00;96.00;;;;;;5085810;28;20028;-58
2024/01/14 09:57:51;;;;;;;48.42;16.25;;;2.00;96.00;;;;;;5102047;28;20028;-58
2024/01/14 10:00:17;;;;;;;29.15;14.90;;;2.00;96.00;;;;;;5101423;28;20064;-57
2024/01/14 10:02:42;;;;;;;44.03;16.10;;;2.00;96.00;;;;;;5085637;28;20033;-58
2024/01/14 10:05:09;;;;;;;31.92;15.20;;;2.00;96.00;;;;;;5084686;28;20035;-59
2024/01/14 10:07:35;;;;;;;52.95;16.15;;;2.00;95.90;;;;;;5103329;28;20088;-58
2024/01/14 10:10:00;;;;;;;62.47;16.15;;;2.00;96.00;;;;;;5085387;28;20039;-58
2024/01/14 10:12:26;;;;;;;43.30;15.65;;;2.10;96.10;;;;;;5106902;28;20028;-58
2024/01/14 10:14:58;;;;;;;56.25;17.83;;;2.10;96.50;;;;;;5108503;28;20121;-58
2024/01/14 10:17:25;;;;;;;61.85;16.60;;;2.10;96.20;;;;;;5109906;28;20609;-58
2024/01/14 10:19:54;;;;;;;53.63;16.08;;;2.10;96.20;;;;;;5107096;28;20040;-58
2024/01/14 10:22:21;;;;;;;57.50;17.25;;;2.10;96.20;;;;;;5109741;28;20053;-58
2024/01/14 10:24:54;;;;;;;44.58;16.48;;;2.10;96.30;;;;;;5105150;28;20215;-58
2024/01/14 10:27:23;;;;;;;59.72;16.00;;;2.10;96.30;;;;;;5088485;28;20036;-58
2024/01/14 10:29:49;;;;;;;52.67;16.45;;;2.10;96.20;;;;;;5090050;28;20048;-58
2024/01/14 10:32:15;;;;;;;48.53;17.13;;;2.10;96.20;;;;;;5089259;28;20032;-57
2024/01/14 10:34:41;;;;;;;52.40;16.88;;;2.20;96.30;;;;;;5089014;28;20037;-58
2024/01/14 10:37:07;;;;;;;60.58;18.48;;;2.20;96.40;;;;;;5089547;28;20024;-58
2024/01/14 10:39:33;;;;;;;44.30;15.07;;;2.20;96.40;;;;;;5089176;28;20024;-58
2024/01/14 10:42:02;;;;;;;57.30;17.38;;;2.20;96.50;;;;;;5104615;28;20024;-58
2024/01/14 10:44:28;;;;;;;55.13;16.75;;;2.20;96.50;;;;;;5104477;28;20039;-58
2024/01/14 10:46:54;;;;;;;47.20;14.68;;;2.20;96.40;;;;;;5089049;28;20029;-58
2024/01/14 10:49:25;;;;;;;47.53;15.95;;;2.20;96.30;;;;;;5089087;28;20362;-59
2024/01/14 10:52:07;;;;;;;42.35;15.45;;;2.20;96.10;;;;;;5089698;28;20028;-57
2024/01/14 10:54:52;;;;;;;44.40;15.35;;;2.20;96.00;;;;;;5086794;28;20063;-58
2024/01/14 10:57:31;;;;;;;69.25;16.33;;;2.30;96.00;;;;;;5096721;28;20059;-58
2024/01/14 11:00:00;;;;;;;63.83;17.30;;;2.20;96.00;;;;;;5088885;28;20025;-58
2024/01/14 11:02:27;;;;;;;55.30;16.23;;;2.20;96.20;;;;;;5106074;28;20020;-58
2024/01/14 11:04:53;;;;;;;54.90;16.70;;;2.30;96.40;;;;;;5088528;28;20028;-58
2024/01/14 11:07:18;;;;;;;50.03;15.85;;;2.30;96.40;;;;;;5104417;28;20042;-58
2024/01/14 11:09:44;;;;;;;62.83;16.05;;;2.30;96.30;;;;;;5089895;28;20032;-58
2024/01/14 11:12:18;;;;;;;48.45;16.42;;;2.30;96.30;;;;;;5089444;28;20053;-58
2024/01/14 11:14:43;;;;;;;74.10;18.23;;;2.30;96.40;;;;;;5108664;28;20023;-58
2024/01/14 11:17:27;;;;;;;64.50;18.25;;;2.30;96.50;;;;;;5088474;28;20025;-58
2024/01/14 11:19:52;;;;;;;55.92;17.40;;;2.40;96.70;;;;;;5088904;28;20020;-58
2024/01/14 11:22:19;;;;;;;72.68;17.60;;;2.40;96.80;;;;;;5114875;28;20483;-58
2024/01/14 11:24:45;;;;;;;69.68;18.15;;;2.40;96.70;;;;;;5100363;28;20062;-58
2024/01/14 11:27:11;;;;;;;78.38;18.45;;;2.40;96.70;;;;;;5094358;28;20032;-58
2024/01/14 11:29:37;;;;;;;50.47;16.90;;;2.40;96.70;;;;;;5089417;28;20088;-58
2024/01/14 11:32:03;;;;;;;64.45;17.02;;;2.10;96.60;;;;;;5107323;28;20028;-58
2024/01/14 11:34:47;;;;;;;83.60;18.42;;;2.40;96.70;;;;;;5102636;28;20051;-58
2024/01/14 11:37:37;;;;;;;69.75;17.83;;;2.40;96.80;;;;;;5102552;28;20027;-58
2024/01/14 11:40:06;;;;;;;78.35;19.45;;;2.40;96.80;;;;;;5103857;28;20088;-57
2024/01/14 11:42:32;;;;;;;95.25;19.60;;;2.40;96.80;;;;;;5103283;28;20016;-57
2024/01/14 11:45:00;;;;;;;64.07;17.38;;;2.50;96.90;;;;;;5104697;28;20051;-57
2024/01/14 11:47:55;;;;;;;94.55;20.15;;;2.50;96.80;;;;;;5107883;28;20024;-58
2024/01/14 11:50:21;;;;;;;90.32;19.10;;;2.50;96.90;;;;;;5086472;28;20043;-58
2024/01/14 11:52:51;;;;;;;99.50;20.65;;;2.50;97.00;;;;;;5089853;28;20091;-58
2024/01/14 11:55:34;;;;;;;72.35;18.83;;;2.50;97.00;;;;;;5107677;28;20127;-57
2024/01/14 11:58:14;;;;;;;108.43;20.40;;;2.50;97.00;;;;;;5107838;28;20120;-57
2024/01/14 12:00:39;;;;;;;85.80;20.58;;;2.60;97.00;;;;;;5100421;28;20480;-58
2024/01/14 12:03:12;;;;;;;105.25;20.52;;;2.50;97.20;;;;;;5105499;28;20116;-56
2024/01/14 12:05:40;;;;;;;105.82;20.35;;;2.60;97.40;;;;;;5103874;28;20040;-58
2024/01/14 12:08:05;;;;;;;97.15;21.50;;;2.60;97.50;;;;;;5092447;28;20028;-57
2024/01/14 12:10:32;;;;;;;79.53;18.35;;;2.60;97.50;;;;;;5110842;28;20028;-57
2024/01/14 12:12:59;;;;;;;96.13;20.57;;;2.60;97.40;;;;;;5104851;28;20032;-57
2024/01/14 12:15:24;;;;;;;90.68;20.13;;;2.60;97.30;;;;;;5097685;28;20150;-57
2024/01/14 12:17:57;;;;;;;92.65;21.08;;;2.60;97.40;;;;;;5106743;28;20024;-58
2024/01/14 12:20:23;;;;;;;105.57;19.80;;;2.60;97.30;;;;;;5068730;28;20115;-58
2024/01/14 12:22:55;;;;;;;127.05;22.58;;;2.60;97.40;;;;;;5087498;28;20025;-57
2024/01/14 12:25:20;;;;;;;86.28;20.55;;;2.70;97.50;;;;;;5116014;28;20066;-57
2024/01/14 12:27:46;;;;;;;99.68;20.58;;;2.70;97.40;;;;;;5105957;28;20055;-57
2024/01/14 12:30:21;;;;;;;97.40;20.77;;;2.70;97.50;;;;;;5107157;28;20055;-57
2024/01/14 12:32:48;;;;;;;93.47;19.98;;;2.70;97.40;;;;;;5124715;28;20102;-58